createdAt,value
2017-09-30T16:25:39.944Z,2.07
2017-09-30T16:28:07.485Z,2.57
2017-09-30T16:30:35.022Z,1.97
2017-09-30T16:33:02.684Z,2.00
2017-09-30T16:35:30.243Z,1.53
2017-09-30T16:37:57.791Z,1.80
2017-09-30T16:40:25.815Z,1.83
2017-09-30T16:42:53.546Z,1.73
2017-09-30T16:45:21.094Z,1.80
2017-09-30T16:47:49.096Z,1.80
2017-09-30T16:50:16.628Z,1.90
2017-09-30T16:52:44.398Z,1.80
2017-09-30T16:55:12.459Z,2.03
2017-09-30T16:57:40.047Z,1.63
2017-09-30T17:00:07.677Z,2.07
2017-09-30T17:02:35.748Z,1.47
2017-09-30T17:05:03.514Z,1.97
2017-09-30T17:07:31.183Z,1.60
2017-09-30T17:09:59.255Z,1.27
2017-09-30T17:12:27.018Z,1.93
2017-09-30T17:14:54.978Z,1.70
2017-09-30T17:17:23.151Z,1.53
2017-09-30T17:19:50.919Z,1.70
2017-09-30T17:22:18.679Z,1.47
2017-09-30T17:24:46.511Z,1.50
2017-09-30T17:27:14.213Z,1.30
2017-09-30T17:29:41.800Z,3.30
2017-09-30T17:32:09.939Z,1.50
2017-09-30T17:34:37.665Z,1.43
2017-09-30T17:37:05.653Z,1.40
2017-09-30T17:39:33.555Z,1.60
2017-09-30T17:42:01.316Z,1.40
2017-09-30T17:44:29.067Z,2.97
2017-09-30T17:46:57.429Z,1.63
2017-09-30T17:49:25.106Z,1.43
2017-09-30T17:51:52.792Z,2.00
2017-09-30T17:54:20.741Z,1.63
2017-09-30T17:56:48.808Z,1.40
2017-09-30T17:59:16.572Z,1.53
2017-09-30T18:01:44.389Z,1.60
2017-09-30T18:04:12.112Z,1.20
2017-09-30T18:06:39.670Z,1.50
2017-09-30T18:09:07.622Z,1.57
2017-09-30T18:11:35.314Z,1.37
2017-09-30T18:14:03.064Z,1.33
2017-09-30T18:16:30.895Z,2.60
2017-09-30T18:18:58.596Z,1.83
2017-09-30T18:21:26.241Z,1.80
2017-09-30T18:23:53.902Z,2.27
2017-09-30T18:26:21.679Z,1.73
2017-09-30T18:28:49.306Z,1.73
2017-09-30T18:31:17.301Z,1.57
2017-09-30T18:33:45.164Z,1.60
2017-09-30T18:36:12.839Z,1.60
2017-09-30T18:38:40.664Z,1.30
2017-09-30T18:41:08.468Z,1.33
2017-09-30T18:43:36.181Z,1.80
2017-09-30T18:46:04.207Z,1.80
2017-09-30T18:48:31.849Z,1.90
2017-09-30T18:50:59.459Z,1.93
2017-09-30T18:53:27.691Z,2.37
2017-09-30T18:55:55.365Z,2.20
2017-09-30T18:58:23.112Z,2.70
2017-09-30T19:00:50.805Z,2.27
2017-09-30T19:03:18.638Z,1.93
2017-09-30T19:05:46.300Z,1.70
2017-09-30T19:08:13.994Z,1.83
2017-09-30T19:10:41.828Z,2.40
2017-09-30T19:13:09.695Z,1.80
2017-09-30T19:15:38.177Z,1.90
2017-09-30T19:18:05.954Z,2.17
2017-09-30T19:20:34.343Z,2.30
2017-09-30T19:23:02.597Z,1.87
2017-09-30T19:25:30.255Z,2.57
2017-09-30T19:27:57.882Z,1.90
2017-09-30T19:30:26.694Z,1.70
2017-09-30T19:32:54.516Z,1.63
2017-09-30T19:35:22.255Z,2.53
2017-09-30T19:37:50.204Z,2.50
2017-09-30T19:40:17.979Z,2.23
2017-09-30T19:42:45.629Z,1.80
2017-09-30T19:45:13.803Z,1.83
2017-09-30T19:47:41.669Z,1.70
2017-09-30T19:50:09.448Z,1.67
2017-09-30T19:52:37.409Z,1.35
2017-09-30T19:55:05.173Z,1.90
2017-09-30T19:57:33.036Z,1.93
2017-09-30T20:00:01.102Z,2.23
2017-09-30T20:02:30.105Z,1.50
2017-09-30T20:04:57.875Z,1.50
2017-09-30T20:07:26.035Z,1.43
2017-09-30T20:09:54.298Z,1.73
2017-09-30T20:12:22.276Z,1.70
2017-09-30T20:14:50.244Z,1.93
2017-09-30T20:17:18.032Z,1.80
2017-09-30T20:19:45.789Z,2.65
2017-09-30T20:22:13.742Z,2.60
2017-09-30T20:25:34.037Z,2.22
2017-09-30T20:28:02.313Z,3.30
2017-09-30T20:30:30.089Z,3.80
2017-09-30T20:32:57.943Z,3.85
2017-09-30T20:35:26.014Z,3.80
2017-09-30T20:37:54.394Z,3.65
2017-09-30T20:40:22.682Z,4.33
2017-09-30T20:42:50.435Z,4.12
2017-09-30T20:45:18.210Z,4.05
2017-09-30T20:47:45.960Z,5.30
2017-09-30T20:50:14.135Z,4.70
2017-09-30T20:52:41.712Z,5.00
2017-09-30T20:55:09.355Z,5.80
2017-09-30T20:57:37.322Z,3.87
2017-09-30T21:00:04.915Z,6.10
2017-09-30T21:02:32.555Z,5.73
2017-09-30T21:05:00.169Z,5.80
2017-09-30T21:07:27.874Z,6.20
2017-09-30T21:09:55.431Z,5.77
2017-09-30T21:12:23.189Z,5.87
2017-09-30T21:14:50.787Z,5.40
2017-09-30T21:17:18.354Z,6.10
2017-09-30T21:19:46.264Z,6.32
2017-09-30T21:22:13.873Z,5.83
2017-09-30T21:24:41.907Z,5.32
2017-09-30T21:27:10.081Z,6.28
2017-09-30T21:29:38.057Z,6.10
2017-09-30T21:32:05.825Z,6.12
2017-09-30T21:34:33.577Z,5.95
2017-09-30T21:37:01.135Z,5.87
2017-09-30T21:39:28.722Z,6.20
2017-09-30T21:41:56.286Z,5.03
2017-09-30T21:44:23.810Z,5.10
2017-09-30T21:46:51.322Z,5.40
2017-09-30T21:49:18.932Z,5.57
2017-09-30T21:51:46.491Z,4.47
2017-09-30T21:54:14.014Z,4.45
2017-09-30T21:56:41.906Z,4.00
2017-09-30T21:59:09.414Z,3.60
2017-09-30T22:01:36.942Z,3.15
2017-09-30T22:04:05.006Z,4.43
2017-09-30T22:06:32.564Z,3.30
2017-09-30T22:09:00.146Z,4.40
2017-09-30T22:11:28.077Z,3.40
2017-09-30T22:13:55.654Z,4.55
2017-09-30T22:16:23.209Z,3.65
2017-09-30T22:18:50.946Z,3.37
2017-09-30T22:21:18.531Z,4.15
2017-09-30T22:23:46.090Z,3.43
2017-09-30T22:26:13.956Z,3.97
2017-09-30T22:28:41.521Z,4.77
2017-09-30T22:31:09.179Z,3.50
2017-09-30T22:33:36.942Z,4.30
2017-09-30T22:36:04.516Z,3.63
2017-09-30T22:38:32.058Z,4.20
2017-09-30T22:40:59.618Z,3.93
2017-09-30T22:43:27.178Z,3.90
2017-09-30T22:45:54.683Z,4.50
2017-09-30T22:48:22.230Z,5.60
2017-09-30T22:50:49.738Z,5.00
2017-09-30T22:53:17.253Z,4.23
2017-09-30T22:55:45.046Z,4.00
2017-09-30T22:58:12.559Z,4.33
2017-09-30T23:00:40.092Z,4.50
2017-09-30T23:03:07.652Z,4.23
2017-09-30T23:05:35.209Z,4.23
2017-09-30T23:08:02.801Z,4.03
2017-09-30T23:10:30.634Z,3.87
2017-09-30T23:12:58.198Z,3.20
2017-09-30T23:15:25.705Z,3.50
2017-09-30T23:17:53.520Z,3.00
2017-09-30T23:20:21.101Z,2.63
2017-09-30T23:22:48.636Z,2.70
2017-09-30T23:25:16.374Z,2.50
2017-09-30T23:27:43.918Z,2.45
2017-09-30T23:30:11.426Z,2.67
2017-09-30T23:32:39.179Z,2.35
2017-09-30T23:35:06.738Z,2.70
2017-09-30T23:37:34.298Z,2.40
2017-09-30T23:40:01.856Z,2.55
2017-09-30T23:42:29.416Z,2.80
2017-09-30T23:44:56.940Z,3.08
2017-09-30T23:47:24.636Z,3.47
2017-09-30T23:49:52.195Z,2.80
2017-09-30T23:52:19.784Z,3.45
2017-09-30T23:54:47.346Z,4.62
2017-09-30T23:57:14.867Z,3.70
2017-09-30T23:59:42.454Z,3.58
